createdAt,value
2023-03-25T00:00:16.831Z,8.14
2023-03-25T00:02:49.345Z,7.97
2023-03-25T00:05:19.210Z,8.12
2023-03-25T00:07:48.593Z,8.15
2023-03-25T00:10:15.551Z,7.54
2023-03-25T00:12:45.469Z,7.94
2023-03-25T00:15:13.790Z,7.19
2023-03-25T00:17:40.573Z,7.85
2023-03-25T00:20:10.194Z,7.72
2023-03-25T00:22:41.130Z,8.00
2023-03-25T00:25:19.264Z,8.12
2023-03-25T00:27:48.015Z,7.71
2023-03-25T00:30:16.144Z,8.16
2023-03-25T00:32:46.023Z,8.11
2023-03-25T00:35:14.102Z,7.35
2023-03-25T00:37:41.417Z,8.15
2023-03-25T00:40:09.329Z,7.99
2023-03-25T00:42:36.088Z,8.17
2023-03-25T00:45:03.614Z,8.19
2023-03-25T00:47:31.585Z,7.95
2023-03-25T00:49:58.293Z,8.14
2023-03-25T00:52:25.005Z,7.99
2023-03-25T00:54:52.833Z,8.09
2023-03-25T00:57:19.643Z,7.99
2023-03-25T00:59:46.325Z,7.91
2023-03-25T01:02:13.139Z,7.70
2023-03-25T01:04:42.227Z,7.82
2023-03-25T01:07:12.748Z,7.79
2023-03-25T01:09:39.599Z,7.45
2023-03-25T01:12:06.456Z,7.44
2023-03-25T01:14:33.158Z,7.69
2023-03-25T01:17:00.557Z,7.71
2023-03-25T01:19:27.387Z,7.61
2023-03-25T01:21:54.482Z,7.62
2023-03-25T01:24:21.181Z,7.73
2023-03-25T01:26:48.224Z,7.64
2023-03-25T01:29:17.826Z,7.62
2023-03-25T01:31:44.793Z,7.85
2023-03-25T01:34:12.448Z,7.20
2023-03-25T01:36:46.883Z,7.78
2023-03-25T01:39:18.734Z,7.62
2023-03-25T01:41:50.203Z,7.49
2023-03-25T01:44:21.032Z,7.91
2023-03-25T01:46:53.879Z,7.55
2023-03-25T01:49:24.641Z,7.76
2023-03-25T01:51:56.807Z,7.89
2023-03-25T01:54:24.267Z,7.74
2023-03-25T01:56:52.422Z,7.76
2023-03-25T01:59:25.172Z,7.64
2023-03-25T02:01:53.786Z,7.65
2023-03-25T02:04:34.921Z,7.29
2023-03-25T02:07:02.329Z,7.51
2023-03-25T02:09:29.379Z,7.10
2023-03-25T02:11:55.984Z,7.11
2023-03-25T02:14:30.593Z,7.43
2023-03-25T02:17:03.268Z,7.47
2023-03-25T02:19:33.335Z,7.58
2023-03-25T02:22:37.712Z,7.49
2023-03-25T02:25:46.133Z,7.49
2023-03-25T02:28:38.178Z,7.35
2023-03-25T02:31:10.695Z,7.45
2023-03-25T02:34:05.348Z,7.35
2023-03-25T02:37:00.258Z,7.33
2023-03-25T02:39:54.721Z,7.28
2023-03-25T02:42:27.718Z,7.31
2023-03-25T02:44:59.297Z,7.23
2023-03-25T02:47:31.722Z,6.95
2023-03-25T02:50:04.872Z,6.84
2023-03-25T02:52:46.638Z,6.83
2023-03-25T02:55:17.879Z,6.75
2023-03-25T02:57:47.808Z,6.47
2023-03-25T03:00:20.676Z,6.36
2023-03-25T03:02:59.971Z,6.37
2023-03-25T03:05:34.139Z,6.38
2023-03-25T03:08:00.706Z,6.33
2023-03-25T03:10:37.263Z,6.32
2023-03-25T03:13:33.292Z,6.36
2023-03-25T03:16:39.452Z,6.22
2023-03-25T03:19:14.442Z,6.05
2023-03-25T03:22:01.454Z,5.79
2023-03-25T03:24:40.102Z,5.58
2023-03-25T03:27:15.081Z,5.61
2023-03-25T03:29:48.297Z,5.23
2023-03-25T03:32:29.866Z,5.67
2023-03-25T03:35:04.266Z,5.56
2023-03-25T03:37:38.147Z,5.61
2023-03-25T03:40:09.802Z,5.53
2023-03-25T03:42:49.337Z,5.22
2023-03-25T03:45:33.463Z,5.58
2023-03-25T03:48:04.632Z,5.15
2023-03-25T03:50:36.701Z,5.56
2023-03-25T03:53:23.752Z,5.06
2023-03-25T03:55:55.648Z,5.74
2023-03-25T03:58:28.583Z,5.64
2023-03-25T04:01:28.146Z,5.72
2023-03-25T04:04:22.711Z,5.66
2023-03-25T04:07:05.178Z,5.51
2023-03-25T04:09:36.191Z,5.43
2023-03-25T04:12:11.502Z,5.37
2023-03-25T04:14:39.243Z,5.47
2023-03-25T04:17:06.710Z,5.32
2023-03-25T04:19:34.159Z,5.94
2023-03-25T04:22:04.864Z,5.94
2023-03-25T04:24:32.430Z,6.08
2023-03-25T04:27:03.556Z,6.07
2023-03-25T04:29:32.126Z,5.81
2023-03-25T04:32:00.171Z,6.19
2023-03-25T04:34:27.775Z,6.26
2023-03-25T04:36:57.264Z,6.17
2023-03-25T04:39:25.683Z,6.30
2023-03-25T04:42:03.566Z,6.51
2023-03-25T04:44:33.822Z,6.41
2023-03-25T04:47:02.326Z,6.70
2023-03-25T04:49:29.375Z,6.78
2023-03-25T04:51:57.077Z,6.94
2023-03-25T04:54:24.207Z,6.89
2023-03-25T04:56:52.304Z,6.72
2023-03-25T04:59:19.974Z,7.34
2023-03-25T05:01:47.467Z,7.40
2023-03-25T05:04:18.414Z,7.24
2023-03-25T05:06:48.569Z,7.56
2023-03-25T05:09:19.127Z,7.68
2023-03-25T05:11:46.358Z,7.71
2023-03-25T05:14:15.475Z,7.90
2023-03-25T05:16:42.792Z,7.90
2023-03-25T05:19:10.059Z,8.15
2023-03-25T05:21:38.130Z,8.95
2023-03-25T05:24:11.034Z,9.86
2023-03-25T05:26:40.027Z,11.13
2023-03-25T05:29:13.972Z,12.22
2023-03-25T05:31:41.640Z,12.88
2023-03-25T05:34:08.588Z,13.96
2023-03-25T05:36:35.932Z,14.96
2023-03-25T05:39:05.668Z,15.58
2023-03-25T05:41:33.149Z,15.48
2023-03-25T05:44:03.230Z,14.60
2023-03-25T05:46:29.955Z,13.96
2023-03-25T05:48:57.720Z,13.45
2023-03-25T05:51:27.094Z,13.68
2023-03-25T05:53:54.352Z,13.52
2023-03-25T05:56:24.397Z,13.63
2023-03-25T05:58:52.285Z,13.57
2023-03-25T06:01:32.665Z,13.15
2023-03-25T06:04:02.066Z,12.49
2023-03-25T06:06:30.784Z,12.59
2023-03-25T06:08:58.209Z,12.37
2023-03-25T06:11:26.010Z,12.05
2023-03-25T06:13:53.101Z,12.37
2023-03-25T06:16:29.967Z,12.20
2023-03-25T06:19:00.256Z,12.42
2023-03-25T06:21:33.087Z,11.96
2023-03-25T06:24:02.401Z,12.91
2023-03-25T06:26:29.880Z,12.59
2023-03-25T06:28:58.156Z,12.27
2023-03-25T06:31:26.917Z,11.93
2023-03-25T06:33:55.226Z,12.30
2023-03-25T06:36:21.855Z,12.27
2023-03-25T06:38:50.438Z,12.45
2023-03-25T06:41:22.058Z,12.46
2023-03-25T06:43:49.257Z,12.42
2023-03-25T06:46:16.964Z,12.22
2023-03-25T06:48:44.032Z,12.39
2023-03-25T06:51:11.598Z,12.48
2023-03-25T06:53:38.537Z,12.69
2023-03-25T06:56:05.699Z,12.76
2023-03-25T06:58:35.350Z,13.02
2023-03-25T07:01:07.274Z,12.91
2023-03-25T07:03:34.952Z,13.00
2023-03-25T07:06:02.079Z,12.84
2023-03-25T07:08:28.972Z,12.88
2023-03-25T07:11:02.337Z,12.77
2023-03-25T07:13:31.315Z,13.26
2023-03-25T07:15:59.204Z,12.76
2023-03-25T07:18:26.726Z,12.88
2023-03-25T07:20:53.853Z,13.11
2023-03-25T07:23:20.888Z,13.25
2023-03-25T07:25:47.945Z,14.05
2023-03-25T07:28:14.776Z,14.36
2023-03-25T07:30:41.614Z,13.52
2023-03-25T07:33:08.656Z,14.39
2023-03-25T07:35:35.514Z,14.79
2023-03-25T07:38:03.004Z,14.64
2023-03-25T07:40:29.722Z,14.81
2023-03-25T07:42:56.357Z,14.77
2023-03-25T07:45:23.469Z,15.69
2023-03-25T07:47:51.055Z,15.37
2023-03-25T07:50:19.723Z,15.93
2023-03-25T07:52:46.770Z,15.64
2023-03-25T07:55:14.593Z,16.19
2023-03-25T07:57:44.338Z,16.46
2023-03-25T08:00:12.005Z,16.70
2023-03-25T08:02:39.539Z,16.04
2023-03-25T08:05:10.304Z,16.07
2023-03-25T08:07:36.872Z,15.86
2023-03-25T08:10:04.212Z,16.04
2023-03-25T08:12:31.062Z,16.12
2023-03-25T08:14:58.078Z,15.71
2023-03-25T08:17:24.869Z,15.70
2023-03-25T08:19:51.671Z,15.47
2023-03-25T08:22:18.550Z,15.69
2023-03-25T08:24:45.501Z,15.85
2023-03-25T08:27:14.852Z,16.08
2023-03-25T08:29:44.535Z,16.26
2023-03-25T08:32:11.329Z,16.24
2023-03-25T08:34:40.083Z,16.09
2023-03-25T08:37:08.114Z,16.09
2023-03-25T08:39:39.747Z,16.12
2023-03-25T08:42:07.597Z,16.01
2023-03-25T08:44:34.722Z,15.96
2023-03-25T08:47:01.898Z,16.50
2023-03-25T08:49:28.540Z,16.56
2023-03-25T08:51:57.643Z,16.82
2023-03-25T08:54:26.262Z,16.19
2023-03-25T08:56:53.050Z,16.68
2023-03-25T08:59:20.581Z,16.71
2023-03-25T09:01:47.723Z,17.25
2023-03-25T09:04:14.421Z,17.37
2023-03-25T09:06:47.612Z,17.68
2023-03-25T09:09:16.529Z,17.94
2023-03-25T09:11:43.210Z,18.28
2023-03-25T09:14:10.378Z,18.18
2023-03-25T09:16:36.977Z,18.17
2023-03-25T09:19:04.109Z,18.04
2023-03-25T09:21:31.204Z,18.20
2023-03-25T09:23:57.835Z,18.35
2023-03-25T09:26:26.192Z,18.24
2023-03-25T09:28:55.624Z,18.23
2023-03-25T09:31:23.550Z,18.34
2023-03-25T09:33:50.570Z,18.58
2023-03-25T09:36:17.420Z,18.81
2023-03-25T09:38:44.373Z,18.80
2023-03-25T09:41:34.119Z,19.15
2023-03-25T09:44:15.114Z,19.12
2023-03-25T09:46:42.335Z,19.37
2023-03-25T09:49:18.443Z,19.46
2023-03-25T09:51:48.905Z,19.47
2023-03-25T09:54:34.119Z,19.52
2023-03-25T09:57:07.500Z,19.35
2023-03-25T09:59:44.564Z,19.58
2023-03-25T10:02:41.718Z,19.92
2023-03-25T10:05:14.912Z,20.17
2023-03-25T10:08:04.569Z,20.30
2023-03-25T10:10:46.620Z,20.43
2023-03-25T10:13:20.094Z,20.68
2023-03-25T10:16:00.245Z,20.23
2023-03-25T10:18:37.873Z,20.15
2023-03-25T10:21:23.907Z,20.23
2023-03-25T10:24:11.940Z,19.91
2023-03-25T10:26:51.029Z,19.96
2023-03-25T10:29:28.098Z,19.91
2023-03-25T10:32:00.373Z,20.01
2023-03-25T10:34:40.479Z,20.30
2023-03-25T10:37:12.664Z,20.87
2023-03-25T10:39:44.645Z,20.81
2023-03-25T10:42:30.789Z,20.85
2023-03-25T10:44:57.784Z,21.28
2023-03-25T10:47:29.187Z,21.36
2023-03-25T10:49:57.252Z,21.99
2023-03-25T10:52:25.301Z,21.91
2023-03-25T10:54:56.213Z,21.96
2023-03-25T10:57:27.835Z,21.96
2023-03-25T11:00:12.754Z,21.98
2023-03-25T11:02:39.629Z,21.98
2023-03-25T11:05:08.263Z,22.18
2023-03-25T11:08:08.731Z,22.54
2023-03-25T11:10:47.792Z,22.16
2023-03-25T11:13:16.856Z,21.66
2023-03-25T11:15:44.607Z,21.64
2023-03-25T11:18:44.458Z,21.57
2023-03-25T11:21:15.760Z,21.73
2023-03-25T11:23:45.981Z,21.53
2023-03-25T11:26:25.294Z,21.55
2023-03-25T11:28:56.171Z,22.14
2023-03-25T11:31:28.157Z,22.42
2023-03-25T11:34:07.566Z,22.05
2023-03-25T11:36:40.360Z,21.72
2023-03-25T11:39:30.297Z,21.74
2023-03-25T11:41:57.821Z,21.64
2023-03-25T11:44:33.107Z,21.75
2023-03-25T11:47:06.370Z,21.70
2023-03-25T11:49:38.507Z,21.67
2023-03-25T11:52:09.639Z,21.08
2023-03-25T11:54:37.461Z,21.01
2023-03-25T11:57:07.443Z,20.93
2023-03-25T11:59:45.669Z,21.05
2023-03-25T12:02:37.597Z,20.85
2023-03-25T12:05:16.742Z,20.80
2023-03-25T12:07:52.601Z,20.33
2023-03-25T12:10:32.066Z,20.20
2023-03-25T12:13:17.307Z,20.26
2023-03-25T12:15:56.192Z,20.22
2023-03-25T12:18:53.917Z,20.04
2023-03-25T12:21:50.729Z,19.68
2023-03-25T12:24:38.745Z,19.71
2023-03-25T12:27:31.150Z,19.76
2023-03-25T12:30:25.718Z,19.89
2023-03-25T12:33:13.765Z,19.58
2023-03-25T12:36:01.896Z,19.59
2023-03-25T12:38:47.294Z,19.54
2023-03-25T12:41:51.988Z,19.75
2023-03-25T12:44:27.655Z,19.89
2023-03-25T12:46:57.412Z,20.07
2023-03-25T12:49:37.086Z,19.79
2023-03-25T12:52:32.300Z,20.07
2023-03-25T12:55:36.747Z,20.18
2023-03-25T12:58:21.489Z,20.17
2023-03-25T13:01:07.232Z,20.24
2023-03-25T13:04:04.729Z,20.32
2023-03-25T13:06:49.612Z,19.95
2023-03-25T13:09:25.569Z,19.92
2023-03-25T13:11:58.964Z,20.03
2023-03-25T13:14:32.128Z,19.90
2023-03-25T13:17:02.860Z,19.72
2023-03-25T13:19:34.733Z,19.30
2023-03-25T13:22:07.519Z,19.37
2023-03-25T13:24:51.661Z,19.22
2023-03-25T13:27:19.900Z,19.19
2023-03-25T13:29:59.256Z,18.84
2023-03-25T13:32:37.115Z,18.41
2023-03-25T13:35:12.114Z,18.21
2023-03-25T13:37:43.317Z,18.18
2023-03-25T13:40:10.888Z,18.26
2023-03-25T13:43:02.271Z,18.16
2023-03-25T13:45:35.643Z,18.06
2023-03-25T13:48:17.872Z,18.10
2023-03-25T13:50:44.956Z,18.07
2023-03-25T13:53:41.333Z,17.67
2023-03-25T13:56:11.633Z,17.53
2023-03-25T13:59:05.779Z,16.96
2023-03-25T14:02:08.423Z,16.95
2023-03-25T14:04:46.959Z,17.06
2023-03-25T14:07:48.317Z,17.15
2023-03-25T14:10:52.881Z,16.93
2023-03-25T14:13:42.996Z,16.46
2023-03-25T14:16:16.516Z,15.88
2023-03-25T14:18:53.362Z,15.28
2023-03-25T14:21:38.475Z,15.39
2023-03-25T14:24:10.617Z,15.52
2023-03-25T14:26:48.590Z,14.58
2023-03-25T14:29:40.430Z,15.21
2023-03-25T14:32:22.001Z,15.41
2023-03-25T14:34:50.049Z,15.32
2023-03-25T14:37:29.119Z,14.49
2023-03-25T14:40:02.174Z,14.56
2023-03-25T14:43:01.691Z,15.38
2023-03-25T14:45:32.423Z,15.54
2023-03-25T14:48:00.800Z,15.09
2023-03-25T14:50:28.225Z,15.34
2023-03-25T14:53:05.909Z,15.56
2023-03-25T14:55:36.655Z,15.57
2023-03-25T14:58:16.846Z,15.47
2023-03-25T15:00:53.959Z,15.59
2023-03-25T15:03:22.781Z,15.57
2023-03-25T15:06:00.796Z,15.41
2023-03-25T15:08:42.989Z,15.21
2023-03-25T15:11:17.315Z,15.41
2023-03-25T15:13:54.537Z,15.04
2023-03-25T15:16:38.063Z,15.84
2023-03-25T15:19:12.958Z,15.75
2023-03-25T15:21:58.443Z,15.87
2023-03-25T15:24:36.662Z,15.83
2023-03-25T15:27:26.043Z,15.71
2023-03-25T15:30:01.350Z,14.97
2023-03-25T15:32:43.227Z,15.62
2023-03-25T15:35:32.671Z,15.73
2023-03-25T15:38:21.783Z,15.87
2023-03-25T15:41:14.737Z,15.80
2023-03-25T15:44:00.596Z,15.06
2023-03-25T15:46:53.045Z,15.85
2023-03-25T15:50:08.076Z,15.98
2023-03-25T15:53:05.941Z,15.39
2023-03-25T15:56:06.729Z,15.50
2023-03-25T15:58:55.516Z,15.83
2023-03-25T16:01:33.021Z,15.57
2023-03-25T16:04:05.875Z,15.75
2023-03-25T16:06:40.260Z,15.77
2023-03-25T16:09:11.620Z,15.63
2023-03-25T16:11:43.722Z,15.64
2023-03-25T16:14:14.432Z,15.77
2023-03-25T16:16:50.640Z,15.62
2023-03-25T16:19:22.758Z,15.84
2023-03-25T16:21:50.444Z,16.00
2023-03-25T16:24:20.704Z,15.70
2023-03-25T16:26:49.176Z,15.91
2023-03-25T16:29:17.952Z,16.00
2023-03-25T16:32:02.334Z,15.82
2023-03-25T16:34:38.104Z,15.86
2023-03-25T16:37:06.936Z,15.71
2023-03-25T16:39:36.779Z,15.60
2023-03-25T16:42:34.684Z,15.37
2023-03-25T16:45:03.007Z,15.21
2023-03-25T16:47:33.522Z,15.02
2023-03-25T16:50:02.959Z,14.80
2023-03-25T16:52:33.067Z,14.75
2023-03-25T16:54:59.646Z,14.90
2023-03-25T16:57:34.061Z,14.84
2023-03-25T17:00:20.501Z,14.84
2023-03-25T17:02:49.810Z,14.73
2023-03-25T17:05:22.445Z,14.69
2023-03-25T17:08:04.179Z,14.40
2023-03-25T17:10:47.758Z,14.38
2023-03-25T17:13:22.852Z,14.36
2023-03-25T17:15:51.586Z,14.26
2023-03-25T17:18:20.900Z,14.18
2023-03-25T17:20:49.373Z,13.97
2023-03-25T17:23:35.048Z,13.91
2023-03-25T17:26:12.691Z,13.91
2023-03-25T17:28:43.220Z,13.68
2023-03-25T17:31:38.159Z,13.65
2023-03-25T17:34:07.434Z,13.56
2023-03-25T17:36:40.562Z,13.62
2023-03-25T17:39:19.438Z,13.59
2023-03-25T17:41:46.848Z,13.41
2023-03-25T17:44:16.950Z,13.45
2023-03-25T17:46:44.224Z,13.38
2023-03-25T17:49:16.884Z,13.52
2023-03-25T17:51:44.055Z,13.40
2023-03-25T17:54:10.940Z,13.10
2023-03-25T17:56:39.603Z,13.24
2023-03-25T17:59:14.382Z,12.95
2023-03-25T18:01:41.166Z,13.11
2023-03-25T18:04:09.468Z,13.24
2023-03-25T18:06:36.417Z,12.70
2023-03-25T18:09:03.660Z,13.16
2023-03-25T18:11:31.102Z,13.04
2023-03-25T18:13:57.848Z,13.05
2023-03-25T18:16:24.752Z,12.99
2023-03-25T18:18:51.931Z,12.87
2023-03-25T18:21:20.159Z,12.74
2023-03-25T18:23:48.645Z,13.00
2023-03-25T18:26:18.651Z,12.69
2023-03-25T18:28:49.124Z,12.61
2023-03-25T18:31:17.854Z,12.39
2023-03-25T18:33:50.229Z,12.09
2023-03-25T18:36:18.862Z,12.29
2023-03-25T18:38:46.260Z,12.11
2023-03-25T18:41:17.681Z,12.10
2023-03-25T18:43:44.668Z,12.06
2023-03-25T18:46:14.151Z,11.80
2023-03-25T18:48:41.335Z,11.75
2023-03-25T18:51:10.713Z,11.64
2023-03-25T18:53:37.983Z,11.66
2023-03-25T18:56:05.214Z,11.54
2023-03-25T18:58:34.035Z,11.34
2023-03-25T19:01:02.887Z,11.56
2023-03-25T19:03:38.595Z,11.40
2023-03-25T19:06:11.596Z,11.39
2023-03-25T19:08:39.235Z,11.19
2023-03-25T19:11:19.206Z,10.98
2023-03-25T19:13:48.811Z,11.26
2023-03-25T19:16:15.637Z,11.32
2023-03-25T19:18:42.583Z,11.29
2023-03-25T19:21:14.150Z,11.26
2023-03-25T19:23:42.420Z,11.22
2023-03-25T19:26:09.191Z,10.77
2023-03-25T19:28:35.970Z,10.73
2023-03-25T19:31:03.168Z,10.86
2023-03-25T19:33:31.485Z,10.62
2023-03-25T19:36:01.408Z,10.25
2023-03-25T19:38:29.998Z,10.06
2023-03-25T19:41:10.349Z,10.57
2023-03-25T19:43:37.395Z,10.45
2023-03-25T19:46:05.703Z,10.28
2023-03-25T19:48:33.411Z,10.58
2023-03-25T19:51:00.224Z,10.62
2023-03-25T19:53:28.303Z,10.58
2023-03-25T19:55:55.787Z,10.70
2023-03-25T19:58:23.416Z,10.76
2023-03-25T20:00:50.666Z,10.71
2023-03-25T20:03:22.548Z,10.73
2023-03-25T20:05:50.216Z,10.75
2023-03-25T20:08:16.984Z,10.65
2023-03-25T20:10:43.823Z,10.58
2023-03-25T20:13:10.765Z,10.31
2023-03-25T20:15:37.511Z,9.67
2023-03-25T20:18:04.764Z,9.41
2023-03-25T20:20:31.589Z,10.11
2023-03-25T20:22:58.365Z,10.08
2023-03-25T20:25:25.080Z,9.83
2023-03-25T20:27:52.353Z,10.07
2023-03-25T20:30:20.559Z,9.70
2023-03-25T20:32:48.777Z,10.15
2023-03-25T20:35:18.105Z,9.25
2023-03-25T20:37:46.542Z,10.05
2023-03-25T20:40:16.627Z,9.15
2023-03-25T20:42:45.484Z,10.11
2023-03-25T20:45:14.215Z,9.56
2023-03-25T20:47:41.938Z,9.79
2023-03-25T20:50:11.095Z,9.14
2023-03-25T20:52:38.221Z,9.49
2023-03-25T20:55:05.847Z,9.02
2023-03-25T20:57:32.848Z,9.34
2023-03-25T20:59:59.641Z,9.06
2023-03-25T21:02:27.242Z,9.07
2023-03-25T21:04:57.030Z,9.65
2023-03-25T21:07:27.839Z,9.55
2023-03-25T21:09:54.988Z,9.49
2023-03-25T21:12:27.139Z,9.56
2023-03-25T21:14:59.951Z,9.88
2023-03-25T21:17:27.915Z,9.73
2023-03-25T21:19:55.020Z,10.30
2023-03-25T21:22:22.031Z,10.50
2023-03-25T21:24:48.905Z,10.48
2023-03-25T21:27:17.755Z,10.63
2023-03-25T21:29:46.191Z,10.72
2023-03-25T21:32:15.114Z,10.60
2023-03-25T21:34:42.561Z,10.24
2023-03-25T21:37:09.260Z,10.41
2023-03-25T21:39:37.479Z,10.81
2023-03-25T21:42:10.058Z,9.99
2023-03-25T21:44:38.184Z,10.23
2023-03-25T21:47:08.632Z,10.47
2023-03-25T21:49:35.604Z,10.97
2023-03-25T21:52:02.634Z,10.86
2023-03-25T21:54:30.566Z,10.54
2023-03-25T21:56:57.472Z,10.96
2023-03-25T21:59:25.403Z,10.83
2023-03-25T22:01:53.684Z,11.26
2023-03-25T22:04:20.660Z,10.96
2023-03-25T22:06:47.374Z,10.89
2023-03-25T22:09:14.047Z,11.04
2023-03-25T22:11:40.969Z,11.10
2023-03-25T22:14:09.495Z,11.04
2023-03-25T22:16:37.028Z,11.50
2023-03-25T22:19:04.474Z,10.88
2023-03-25T22:21:37.200Z,11.04
2023-03-25T22:24:05.672Z,10.74
2023-03-25T22:26:33.417Z,11.26
2023-03-25T22:29:02.963Z,11.24
2023-03-25T22:31:31.921Z,10.85
2023-03-25T22:34:03.405Z,11.64
2023-03-25T22:36:32.052Z,11.17
2023-03-25T22:38:59.700Z,11.21
2023-03-25T22:41:27.206Z,11.76
2023-03-25T22:43:53.966Z,11.25
2023-03-25T22:46:20.870Z,11.33
2023-03-25T22:48:47.846Z,11.77
2023-03-25T22:51:17.603Z,11.73
2023-03-25T22:53:45.447Z,11.58
2023-03-25T22:56:13.130Z,11.10
2023-03-25T22:58:40.531Z,10.60
2023-03-25T23:01:18.905Z,11.17
2023-03-25T23:03:45.728Z,11.05
2023-03-25T23:06:12.705Z,10.75
2023-03-25T23:08:40.282Z,10.65
2023-03-25T23:11:17.157Z,10.27
2023-03-25T23:13:47.756Z,9.92
2023-03-25T23:16:17.224Z,9.96
2023-03-25T23:18:44.937Z,9.71
2023-03-25T23:21:14.814Z,9.62
2023-03-25T23:23:52.841Z,9.74
2023-03-25T23:26:29.032Z,9.56
2023-03-25T23:29:00.623Z,8.85
2023-03-25T23:31:34.156Z,9.33
2023-03-25T23:34:04.784Z,8.63
2023-03-25T23:36:34.378Z,9.16
2023-03-25T23:39:02.436Z,8.63
2023-03-25T23:41:29.648Z,8.88
2023-03-25T23:43:56.657Z,8.95
2023-03-25T23:46:25.148Z,8.77
2023-03-25T23:48:55.033Z,8.31
2023-03-25T23:51:24.557Z,8.67
2023-03-25T23:53:52.555Z,7.82
2023-03-25T23:56:21.763Z,8.52
2023-03-25T23:58:49.144Z,8.24
